Time;durP1;ratioP1;P1;durP2;ratioP2;P2;SDS_P1;SDS_P2;PMS_P1;PMS_P2;Temp;Humidity;BMP_temperature;BMP_pressure;BME280_temperature;BME280_humidity;BME280_pressure;Samples;Min_cycle;Max_cycle;Signal;HPM_P1;HPM_P2
2023/03/12 07:44:56;;;;;;;10.13;3.40;;;;;;;-38.82;62.03;92124.22;5537790;22;1394315;-72
2023/03/12 07:47:22;;;;;;;6.60;2.57;;;;;;;-40.20;65.72;92126.38;5203095;22;20259;-70
2023/03/12 07:49:50;;;;;;;12.67;2.93;;;;;;;-41.11;71.39;92121.50;5138096;22;20198;-70
2023/03/12 07:52:18;;;;;;;8.00;2.77;;;;;;;-39.25;64.92;92125.97;5160110;22;21283;-71
2023/03/12 07:54:45;;;;;;;10.83;3.23;;;;;;;-38.42;58.51;92142.09;5148100;22;20834;-70
2023/03/12 07:57:12;;;;;;;12.07;2.70;;;;;;;-40.12;64.73;92139.94;5125652;22;20209;-72
2023/03/12 07:59:39;;;;;;;9.53;2.57;;;;;;;-38.10;58.28;92153.00;5154319;22;20886;-71
2023/03/12 08:02:05;;;;;;;9.90;2.37;;;;;;;-38.93;58.69;92159.72;5113897;22;22375;-73
2023/03/12 08:04:32;;;;;;;6.83;2.10;;;;;;;-40.40;62.28;92150.72;5119103;22;20241;-71
2023/03/12 08:06:59;;;;;;;9.07;2.20;;;;;;;-40.71;65.21;92139.63;5102094;22;20221;-70
2023/03/12 08:09:25;;;;;;;5.57;2.37;;;;;;;-41.50;69.92;92134.16;5115528;22;20202;-72
2023/03/12 08:11:52;;;;;;;9.27;2.90;;;;;;;-40.43;69.42;92148.41;5124336;22;20242;-72
2023/03/12 08:14:18;;;;;;;8.40;2.50;;;;;;;-38.96;57.87;92169.66;5127451;22;20209;-71
2023/03/12 08:16:45;;;;;;;8.17;2.33;;;;;;;-39.25;56.68;92182.25;5091888;22;20668;-71
2023/03/12 08:19:12;;;;;;;7.53;2.40;;;;;;;-40.22;59.84;92164.69;5130428;22;20392;-72
2023/03/12 08:21:38;;;;;;;10.77;2.83;;;;;;;-40.59;61.81;92160.34;5112723;22;20331;-71
2023/03/12 08:24:05;;;;;;;4.47;1.77;;;;;;;-40.67;58.59;92150.88;5116740;22;20263;-70
2023/03/12 08:26:32;;;;;;;6.53;1.47;;;;;;;-40.79;57.73;92156.19;5109138;22;20302;-73
2023/03/12 08:29:01;;;;;;;6.53;1.80;;;;;;;-41.33;60.69;92176.72;5109732;22;21196;-72
2023/03/12 08:31:28;;;;;;;5.13;1.67;;;;;;;-41.82;63.31;92161.22;5089967;22;21598;-72
2023/03/12 08:33:54;;;;;;;9.23;1.83;;;;;;;-41.89;64.56;92164.63;5094913;23;22046;-72
2023/03/12 08:36:21;;;;;;;8.43;2.00;;;;;;;-39.91;58.59;92183.13;5082049;23;21299;-74
2023/03/12 08:38:48;;;;;;;1.70;1.00;;;;;;;-40.59;57.10;92179.09;5100369;22;20217;-72
2023/03/12 08:41:18;;;;;;;4.13;1.23;;;;;;;-41.14;59.10;92170.38;5097572;22;20202;-72
2023/03/12 08:43:45;;;;;;;4.83;1.50;;;;;;;-41.50;60.83;92180.47;5085839;22;21693;-73
2023/03/12 08:46:12;;;;;;;3.20;1.37;;;;;;;-41.58;62.46;92179.94;5084492;23;21710;-73
2023/03/12 08:48:39;;;;;;;7.13;1.83;;;;;;;-41.69;63.57;92186.78;5090233;23;21427;-72
2023/03/12 08:51:06;;;;;;;5.63;1.43;;;;;;;-39.95;58.01;92188.19;5099722;22;20206;-72
2023/03/12 08:53:35;;;;;;;8.07;2.17;;;;;;;-39.29;52.49;92193.03;5118570;22;25441;-72
2023/03/12 08:56:02;;;;;;;6.20;1.27;;;;;;;-39.70;53.88;92192.94;5077244;22;20468;-71
2023/03/12 08:58:29;;;;;;;4.23;1.30;;;;;;;-40.81;54.95;92186.38;5111575;22;20217;-73
2023/03/12 09:00:56;;;;;;;4.03;1.20;;;;;;;-41.43;55.35;92188.38;5097346;23;21374;-71
2023/03/12 09:03:23;;;;;;;7.53;1.50;;;;;;;-41.51;56.96;92195.94;5115138;22;20205;-72
2023/03/12 09:05:50;;;;;;;3.30;1.30;;;;;;;-41.72;58.59;92190.09;5076351;23;21902;-72
2023/03/12 09:08:17;;;;;;;7.23;1.30;;;;;;;-41.48;55.56;92208.88;5135243;22;20206;-72
2023/03/12 09:10:48;;;;;;;5.10;1.30;;;;;;;-41.43;54.39;92204.66;5107790;22;23039;-68
2023/03/12 09:13:15;;;;;;;4.23;1.27;;;;;;;-41.39;54.82;92194.75;5114986;22;20209;-64
2023/03/12 09:15:42;;;;;;;6.57;1.13;;;;;;;-41.45;55.69;92212.03;5111215;23;20248;-69
2023/03/12 09:18:09;;;;;;;2.33;1.00;;;;;;;-41.74;56.83;92208.06;5087294;23;20212;-70
2023/03/12 09:20:35;;;;;;;8.40;1.40;;;;;;;-41.77;57.08;92210.59;5088653;22;22125;-68
2023/03/12 09:23:02;;;;;;;5.33;1.83;;;;;;;-41.79;56.93;92210.63;5086715;23;20673;-68
2023/03/12 09:25:29;;;;;;;6.23;1.53;;;;;;;-41.75;57.68;92211.34;5120329;22;20377;-70
2023/03/12 09:27:55;;;;;;;5.63;2.20;;;;;;;-41.69;57.95;92208.69;5095330;22;20254;-71
2023/03/12 09:30:25;;;;;;;10.60;1.97;;;;;;;-41.66;58.20;92215.13;5104369;23;20218;-70
2023/03/12 09:32:52;;;;;;;2.97;1.40;;;;;;;-41.52;57.86;92204.09;5120593;22;21468;-71
2023/03/12 09:35:19;;;;;;;6.03;1.80;;;;;;;-41.34;59.43;92216.56;5109590;23;20207;-71
2023/03/12 09:37:48;;;;;;;6.90;1.90;;;;;;;-40.79;57.63;92204.22;5120805;22;20328;-72
2023/03/12 09:40:22;;;;;;;5.70;1.80;;;;;;;-40.72;57.40;92210.47;5135221;22;20203;-72
2023/03/12 09:42:53;;;;;;;6.83;2.20;;;;;;;-40.59;53.10;92225.47;5104631;22;20399;-72
2023/03/12 09:45:29;;;;;;;5.20;1.60;;;;;;;-40.86;54.25;92219.03;5083929;23;20216;-68
2023/03/12 09:47:58;;;;;;;7.23;1.70;;;;;;;-40.95;52.41;92225.88;5088527;23;20233;-70
2023/03/12 09:50:29;;;;;;;4.43;1.27;;;;;;;-41.24;51.54;92217.84;5091838;23;20211;-69
2023/03/12 09:53:01;;;;;;;6.10;1.00;;;;;;;-41.26;51.64;92233.38;5120150;23;20277;-72
2023/03/12 09:55:36;;;;;;;9.20;1.73;;;;;;;-41.29;54.32;92236.72;5089864;23;20200;-70
2023/03/12 09:58:03;;;;;;;4.83;1.40;;;;;;;-41.18;53.91;92224.97;5069347;23;21126;-72
2023/03/12 10:00:33;;;;;;;5.90;1.50;;;;;;;-41.53;55.07;92226.91;5086002;23;25695;-74
2023/03/12 10:03:08;;;;;;;8.13;2.00;;;;;;;-41.78;55.34;92236.59;5088753;23;20363;-73
2023/03/12 10:05:36;;;;;;;6.20;1.70;;;;;;;-41.75;55.22;92230.84;5084558;23;20613;-73
2023/03/12 10:08:15;;;;;;;5.17;1.37;;;;;;;-42.01;55.88;92242.16;5064433;23;20345;-72
2023/03/12 10:11:14;;;;;;;7.07;1.10;;;;;;;-42.16;58.21;92237.69;5116528;23;20258;-73
2023/03/12 10:14:12;;;;;;;9.30;1.57;;;;;;;-41.99;58.85;92237.22;5090323;23;23282;-73
2023/03/12 10:17:30;;;;;;;4.60;1.67;;;;;;;-41.93;58.99;92239.47;5097599;23;22026;-72
2023/03/12 10:20:09;;;;;;;5.87;1.90;;;;;;;-41.98;58.88;92246.94;5078054;23;20458;-72
2023/03/12 10:22:45;;;;;;;6.83;1.43;;;;;;;-41.93;58.90;92249.22;5061785;23;22651;-71
2023/03/12 10:25:29;;;;;;;10.43;2.87;;;;;;;-41.95;59.94;92258.22;5091470;23;20208;-72
2023/03/12 10:28:06;;;;;;;6.53;2.50;;;;;;;-42.03;60.74;92258.44;5080544;23;23496;-73
2023/03/12 10:30:33;;;;;;;7.03;2.17;;;;;;;-41.93;60.13;92267.06;5075380;23;21256;-74
2023/03/12 10:33:03;;;;;;;7.47;1.87;;;;;;;-41.76;60.94;92258.47;5068309;23;20214;-72
2023/03/12 10:35:30;;;;;;;6.37;1.93;;;;;;;-41.62;60.43;92260.50;5087551;23;20203;-71
2023/03/12 10:37:59;;;;;;;4.20;1.57;;;;;;;-41.52;57.45;92272.34;5083346;23;20203;-73
2023/03/12 10:40:28;;;;;;;7.93;1.30;;;;;;;-41.63;54.87;92271.09;5105124;23;20203;-71
2023/03/12 10:42:55;;;;;;;4.47;1.30;;;;;;;-41.83;55.84;92262.72;5091149;23;21629;-72
2023/03/12 10:45:31;;;;;;;5.17;1.30;;;;;;;-41.79;55.61;92275.63;5092803;23;21622;-71
2023/03/12 10:48:01;;;;;;;5.77;1.40;;;;;;;-41.79;57.30;92271.53;5095041;23;21802;-75
2023/03/12 10:50:32;;;;;;;12.37;1.40;;;;;;;-41.78;57.46;92274.75;5142576;23;20206;-78
2023/03/12 10:53:22;;;;;;;4.33;1.30;;;;;;;-41.65;57.86;92290.63;5151226;23;21428;-68
2023/03/12 10:56:01;;;;;;;5.93;1.60;;;;;;;-41.61;57.86;92277.53;5147606;23;20210;-79
2023/03/12 10:58:48;;;;;;;7.53;1.53;;;;;;;-41.39;56.99;92276.84;5130022;23;21507;-72
2023/03/12 11:01:19;;;;;;;5.03;1.50;;;;;;;-41.53;57.36;92279.72;5129765;23;20203;-72
2023/03/12 11:03:45;;;;;;;6.43;1.20;;;;;;;-41.55;54.74;92277.31;5143467;23;20263;-75
2023/03/12 11:06:24;;;;;;;3.10;1.27;;;;;;;-41.56;53.18;92280.63;5144062;23;22666;-73
2023/03/12 11:09:15;;;;;;;5.90;1.60;;;;;;;-41.71;52.17;92285.91;5124506;23;20206;-73
2023/03/12 11:11:46;;;;;;;4.27;1.40;;;;;;;-41.58;51.78;92287.19;5145792;23;20485;-72
2023/03/12 11:14:17;;;;;;;12.03;2.30;;;;;;;-41.61;52.26;92297.03;5114565;23;20206;-76
2023/03/12 11:16:44;;;;;;;7.47;2.10;;;;;;;-41.58;51.01;92305.88;5167379;23;20324;-73
2023/03/12 11:19:13;;;;;;;7.97;1.97;;;;;;;-41.72;51.00;92290.00;5133063;23;20209;-75
2023/03/12 11:21:54;;;;;;;4.93;1.60;;;;;;;-41.61;50.98;92292.16;5100277;23;20985;-71
2023/03/12 11:24:21;;;;;;;4.37;1.60;;;;;;;-41.30;50.96;92286.34;5135861;23;25923;-71
2023/03/12 11:26:55;;;;;;;3.97;1.10;;;;;;;-41.22;50.75;92294.19;5119764;23;20216;-72
2023/03/12 11:29:24;;;;;;;4.10;1.57;;;;;;;-41.13;48.68;92302.91;5125731;23;20371;-72
2023/03/12 11:31:56;;;;;;;4.90;1.40;;;;;;;-40.93;47.42;92302.25;5145064;23;20919;-72
2023/03/12 11:34:28;;;;;;;5.43;1.40;;;;;;;-40.58;46.67;92295.41;5136573;23;22209;-76
2023/03/12 11:37:00;;;;;;;7.67;1.20;;;;;;;-40.38;46.68;92312.66;5138847;23;20260;-71
2023/03/12 11:39:38;;;;;;;5.07;1.03;;;;;;;-40.38;46.69;92302.09;5122109;23;20993;-71
2023/03/12 11:42:19;;;;;;;4.13;1.20;;;;;;;-40.54;45.87;92311.56;5133292;23;20570;-70
2023/03/12 11:45:19;;;;;;;4.60;1.67;;;;;;;-40.83;47.15;92312.53;5145423;23;20570;-73
2023/03/12 11:48:11;;;;;;;3.83;1.10;;;;;;;-40.87;47.13;92319.13;5157501;23;20206;-69
2023/03/12 11:50:46;;;;;;;7.27;1.63;;;;;;;-40.82;47.39;92319.78;5129591;23;20209;-75
2023/03/12 11:53:44;;;;;;;4.50;1.50;;;;;;;-40.93;46.92;92319.34;5130135;23;20206;-72
2023/03/12 11:56:13;;;;;;;6.57;1.00;;;;;;;-40.81;46.83;92314.06;5116003;23;22480;-74
2023/03/12 11:59:03;;;;;;;4.47;1.40;;;;;;;-41.03;45.81;92313.13;5093861;23;20209;-68
2023/03/12 12:01:54;;;;;;;3.53;1.00;;;;;;;-41.10;46.23;92318.25;5121995;23;20201;-68
2023/03/12 12:04:42;;;;;;;6.07;1.30;;;;;;;-41.03;46.03;92315.56;5116713;23;20393;-67
2023/03/12 12:07:22;;;;;;;2.67;1.07;;;;;;;-41.27;46.79;92305.75;5149253;23;20206;-68
2023/03/12 12:09:56;;;;;;;3.23;1.10;;;;;;;-41.15;46.38;92314.34;5090293;23;20205;-69
2023/03/12 12:13:21;;;;;;;6.47;1.67;;;;;;;-41.17;46.36;92316.00;5081209;23;20204;-74
2023/03/12 12:16:11;;;;;;;5.73;1.33;;;;;;;-41.08;45.86;92320.59;5021907;23;20422;-73
2023/03/12 12:18:42;;;;;;;3.53;1.23;;;;;;;-41.20;46.68;92307.16;5011067;23;21997;-74
2023/03/12 12:21:27;;;;;;;4.67;1.37;;;;;;;-41.15;47.38;92314.34;5102624;23;21114;-70
2023/03/12 12:24:12;;;;;;;3.57;1.20;;;;;;;-41.09;46.90;92312.47;5128464;23;21275;-70
2023/03/12 12:27:02;;;;;;;9.90;2.70;;;;;;;-41.03;47.37;92309.03;5150001;23;20218;-73
2023/03/12 12:30:06;;;;;;;8.33;2.00;;;;;;;-40.85;47.82;92313.34;5154184;23;20266;-71
2023/03/12 12:32:39;;;;;;;6.43;1.80;;;;;;;-40.63;47.92;92301.25;5172438;23;20209;-73
2023/03/12 12:35:18;;;;;;;6.47;1.73;;;;;;;-40.23;47.16;92312.13;5177740;23;20576;-75
2023/03/12 12:37:49;;;;;;;9.97;1.70;;;;;;;-40.22;45.79;92325.94;5150498;23;20198;-73
2023/03/12 12:40:29;;;;;;;5.40;1.40;;;;;;;-40.33;44.17;92325.50;5089199;23;20206;-72
2023/03/12 12:43:41;;;;;;;8.33;1.87;;;;;;;-40.24;45.61;92334.97;5135800;23;20211;-71
2023/03/12 12:46:13;;;;;;;8.13;1.70;;;;;;;-40.34;48.16;92332.91;5130539;23;20347;-73
2023/03/12 12:48:46;;;;;;;6.40;1.70;;;;;;;-40.55;47.45;92334.41;5074209;23;20206;-74
2023/03/12 12:51:18;;;;;;;9.43;2.03;;;;;;;-40.83;48.21;92340.16;5123415;23;20557;-73
2023/03/12 12:53:55;;;;;;;4.53;1.47;;;;;;;-40.59;48.30;92352.41;5150449;23;20203;-74
2023/03/12 12:56:28;;;;;;;6.50;2.00;;;;;;;-40.47;48.01;92347.97;5119674;23;21615;-75
2023/03/12 12:59:09;;;;;;;5.20;1.40;;;;;;;-40.46;46.49;92364.19;5114273;23;22103;-73
2023/03/12 13:01:36;;;;;;;6.50;1.73;;;;;;;-40.61;46.70;92372.00;5187702;23;21493;-69
2023/03/12 13:04:09;;;;;;;9.73;1.60;;;;;;;-40.55;46.13;92368.56;5112405;23;20256;-73
2023/03/12 13:07:15;;;;;;;7.60;1.80;;;;;;;-40.71;45.12;92366.63;5091832;23;22230;-73
2023/03/12 13:09:53;;;;;;;5.63;1.27;;;;;;;-40.49;46.40;92369.19;5095266;23;20402;-74
2023/03/12 13:12:29;;;;;;;6.83;1.73;;;;;;;-40.23;47.14;92375.66;5059634;23;20207;-73
2023/03/12 13:14:57;;;;;;;8.17;1.57;;;;;;;-40.38;47.42;92371.28;5118897;23;21132;-73
2023/03/12 13:17:31;;;;;;;2.23;1.10;;;;;;;-40.56;48.50;92362.09;5146046;23;20698;-74
2023/03/12 13:20:04;;;;;;;7.70;1.60;;;;;;;-40.48;45.68;92387.88;5153560;23;21871;-73
2023/03/12 13:22:36;;;;;;;4.20;1.60;;;;;;;-40.57;44.58;92390.59;5167870;23;20365;-72
2023/03/12 13:25:17;;;;;;;4.73;2.00;;;;;;;-40.55;45.40;92380.78;5118817;23;23298;-74
2023/03/12 13:27:56;;;;;;;6.93;2.10;;;;;;;-40.24;45.63;92364.28;5104451;23;20273;-72
2023/03/12 13:30:32;;;;;;;9.70;2.37;;;;;;;-40.04;46.10;92368.53;5114731;23;20211;-73
2023/03/12 13:33:00;;;;;;;7.07;1.70;;;;;;;-40.19;45.69;92376.34;5086077;23;20203;-74
2023/03/12 13:35:30;;;;;;;7.63;1.57;;;;;;;-40.36;45.84;92381.78;5088752;23;20418;-71
2023/03/12 13:38:36;;;;;;;6.00;2.40;;;;;;;-40.27;45.03;92395.38;5106262;23;22432;-73
2023/03/12 13:41:04;;;;;;;6.60;1.97;;;;;;;-40.53;45.32;92388.88;5164609;23;20269;-73
2023/03/12 13:43:41;;;;;;;8.13;1.97;;;;;;;-40.51;44.86;92385.53;5168661;23;20210;-72
2023/03/12 13:46:26;;;;;;;5.77;1.80;;;;;;;-40.15;45.40;92381.94;5105381;23;22813;-73
2023/03/12 13:48:56;;;;;;;6.00;2.23;;;;;;;-39.90;45.30;92387.63;5126321;23;20210;-70
2023/03/12 13:51:23;;;;;;;3.30;1.57;;;;;;;-39.87;45.07;92392.41;5138280;23;20208;-70
2023/03/12 13:53:57;;;;;;;6.47;1.90;;;;;;;-39.90;44.80;92394.94;5116512;23;20383;-70
2023/03/12 13:56:27;;;;;;;5.73;1.60;;;;;;;-40.05;45.88;92390.56;5130962;23;21535;-68
2023/03/12 13:59:05;;;;;;;7.07;1.83;;;;;;;-40.06;46.24;92406.06;5082037;23;22026;-69
2023/03/12 14:01:53;;;;;;;6.97;1.97;;;;;;;-40.23;46.42;92402.53;5090205;23;20617;-73
2023/03/12 14:04:23;;;;;;;5.47;1.67;;;;;;;-40.12;45.89;92411.16;5118613;23;20211;-70
2023/03/12 14:06:57;;;;;;;9.63;2.83;;;;;;;-40.05;47.13;92400.31;5159275;23;20340;-70
2023/03/12 14:09:36;;;;;;;7.63;2.13;;;;;;;-40.12;45.93;92401.38;5159382;23;21620;-71
2023/03/12 14:12:18;;;;;;;6.03;2.10;;;;;;;-39.89;45.33;92408.75;5114043;23;20214;-72
2023/03/12 14:15:15;;;;;;;5.70;1.50;;;;;;;-40.03;44.57;92401.06;5164183;23;22159;-71
2023/03/12 14:17:43;;;;;;;6.13;2.10;;;;;;;-39.79;44.36;92402.69;5182584;23;22338;-71
2023/03/12 14:20:15;;;;;;;6.23;2.20;;;;;;;-39.74;43.94;92405.00;5079615;23;20211;-74
2023/03/12 14:22:54;;;;;;;8.17;2.03;;;;;;;-39.70;44.06;92398.34;5130445;23;20762;-73
2023/03/12 14:25:36;;;;;;;8.43;2.10;;;;;;;-39.74;45.30;92412.31;5159118;23;26531;-73
2023/03/12 14:28:09;;;;;;;5.60;1.73;;;;;;;-39.88;45.51;92405.47;5132722;23;21869;-72
2023/03/12 14:30:56;;;;;;;7.80;1.97;;;;;;;-39.87;45.99;92404.63;5097132;23;20203;-71
2023/03/12 14:33:24;;;;;;;3.00;1.33;;;;;;;-40.12;44.51;92404.59;5084950;23;20234;-75
2023/03/12 14:36:03;;;;;;;6.77;2.23;;;;;;;-40.21;45.50;92413.06;5083348;23;20341;-73
2023/03/12 14:38:36;;;;;;;5.70;2.20;;;;;;;-40.35;47.05;92411.91;5070168;23;20377;-73
2023/03/12 14:41:13;;;;;;;6.77;2.77;;;;;;;-40.51;47.06;92414.03;5078980;23;20211;-71
2023/03/12 14:43:42;;;;;;;13.80;5.63;;;;;;;-40.57;46.69;92415.00;5080481;23;20211;-71
2023/03/12 14:46:15;;;;;;;10.20;2.87;;;;;;;-40.80;47.79;92412.50;5104589;23;20211;-71
2023/03/12 14:48:42;;;;;;;4.93;1.80;;;;;;;-40.71;47.80;92420.34;5106327;23;20213;-70
2023/03/12 14:51:29;;;;;;;7.57;2.00;;;;;;;-40.83;48.13;92412.59;5105237;23;22897;-70
2023/03/12 14:54:01;;;;;;;8.83;2.37;;;;;;;-40.90;49.22;92409.53;5069736;23;20210;-71
2023/03/12 14:56:32;;;;;;;7.17;1.80;;;;;;;-40.90;49.14;92397.31;5094754;23;20245;-72
2023/03/12 14:59:00;;;;;;;6.70;1.70;;;;;;;-40.94;49.91;92412.88;5098804;23;20297;-76
2023/03/12 15:01:29;;;;;;;6.60;2.10;;;;;;;-41.03;50.83;92398.53;5091708;23;22885;-72
2023/03/12 15:04:00;;;;;;;7.40;2.10;;;;;;;-41.09;50.68;92421.47;5069619;23;20308;-71
2023/03/12 15:06:30;;;;;;;9.67;2.60;;;;;;;-41.13;50.99;92415.88;5097461;23;21818;-73
2023/03/12 15:08:58;;;;;;;11.30;3.40;;;;;;;-41.12;50.72;92416.72;5061483;23;20211;-72
2023/03/12 15:11:26;;;;;;;11.33;3.90;;;;;;;-41.01;50.43;92424.47;5084384;23;20277;-74
2023/03/12 15:13:55;;;;;;;15.40;3.77;;;;;;;-41.17;50.84;92419.28;5070880;23;21326;-73
2023/03/12 15:16:21;;;;;;;16.70;2.63;;;;;;;-41.12;51.23;92421.59;5095990;23;20203;-70
2023/03/12 15:18:49;;;;;;;8.93;2.70;;;;;;;-41.06;51.69;92424.59;5074022;23;20221;-72
2023/03/12 15:21:16;;;;;;;11.80;3.30;;;;;;;-41.10;52.06;92420.69;5088345;23;21042;-71
2023/03/12 15:23:44;;;;;;;11.60;3.00;;;;;;;-41.08;52.53;92427.91;5089773;23;20207;-71
2023/03/12 15:26:15;;;;;;;15.93;3.90;;;;;;;-41.21;52.55;92417.75;5075128;23;20596;-72
2023/03/12 15:28:42;;;;;;;8.87;2.93;;;;;;;-41.19;53.81;92418.53;5098406;23;21193;-70
2023/03/12 15:31:15;;;;;;;8.07;2.47;;;;;;;-41.17;52.96;92424.16;5101226;23;20199;-67
2023/03/12 15:33:43;;;;;;;9.60;3.10;;;;;;;-41.29;53.36;92415.53;5092920;23;20215;-70
2023/03/12 15:36:18;;;;;;;11.33;3.37;;;;;;;-41.16;53.08;92428.19;5075592;23;20386;-70
2023/03/12 15:38:48;;;;;;;11.00;3.10;;;;;;;-41.10;52.48;92425.56;5085394;23;20207;-70
2023/03/12 15:41:25;;;;;;;15.97;4.90;;;;;;;-41.04;51.26;92429.44;5081710;23;21318;-69
2023/03/12 15:43:56;;;;;;;27.03;10.30;;;;;;;-41.07;51.10;92420.56;5090106;23;20210;-69
2023/03/12 15:46:24;;;;;;;17.77;5.40;;;;;;;-41.09;50.89;92419.03;5089968;23;20621;-73
2023/03/12 15:48:53;;;;;;;18.87;4.20;;;;;;;-41.15;50.85;92422.44;5064393;23;20278;-75
2023/03/12 15:51:29;;;;;;;16.80;3.10;;;;;;;-41.19;50.91;92425.84;5107791;23;20203;-71
2023/03/12 15:54:19;;;;;;;10.80;2.63;;;;;;;-41.25;51.09;92427.63;5116100;23;20592;-73
2023/03/12 15:56:45;;;;;;;14.83;3.67;;;;;;;-41.34;52.11;92436.00;5060735;23;20203;-71
2023/03/12 15:59:15;;;;;;;9.00;2.57;;;;;;;-41.30;52.17;92447.28;5083353;23;20281;-71
2023/03/12 16:01:49;;;;;;;9.10;3.07;;;;;;;-41.23;52.92;92438.94;5100734;23;21242;-69
2023/03/12 16:04:16;;;;;;;6.40;3.03;;;;;;;-41.19;52.78;92440.47;5089349;23;21410;-69
2023/03/12 16:06:45;;;;;;;16.97;5.20;;;;;;;-41.18;53.08;92441.25;5082721;23;21477;-71
2023/03/12 16:09:16;;;;;;;18.90;5.70;;;;;;;-41.32;53.79;92432.69;5093043;23;20946;-71
2023/03/12 16:11:43;;;;;;;20.10;6.93;;;;;;;-41.25;54.89;92433.31;5112266;23;21381;-68
2023/03/12 16:14:16;;;;;;;19.97;7.40;;;;;;;-41.30;54.96;92440.75;5092473;23;21978;-71
2023/03/12 16:16:43;;;;;;;25.73;8.93;;;;;;;-41.53;56.32;92441.41;5087954;23;20206;-69
2023/03/12 16:19:18;;;;;;;22.50;7.60;;;;;;;-41.47;57.04;92444.47;5148222;23;20416;-69
2023/03/12 16:21:45;;;;;;;18.93;6.87;;;;;;;-41.50;57.64;92446.19;5063480;23;20321;-67
2023/03/12 16:24:13;;;;;;;13.30;4.83;;;;;;;-41.51;58.31;92449.44;5084670;23;22922;-69
2023/03/12 16:27:04;;;;;;;31.57;6.97;;;;;;;-41.46;58.53;92448.53;5148088;23;21853;-69
2023/03/12 16:29:36;;;;;;;18.60;5.80;;;;;;;-41.61;58.85;92452.22;5094782;23;20217;-64
2023/03/12 16:32:10;;;;;;;13.70;5.37;;;;;;;-41.70;60.03;92445.13;5113028;23;20344;-64
2023/03/12 16:34:36;;;;;;;24.53;5.63;;;;;;;-41.71;60.55;92446.75;5075119;23;20256;-66
2023/03/12 16:37:03;;;;;;;17.50;4.47;;;;;;;-41.84;61.95;92440.63;5122698;23;20695;-69
2023/03/12 16:39:32;;;;;;;34.43;5.93;;;;;;;-41.86;62.91;92457.69;5084665;23;20659;-71
2023/03/12 16:42:01;;;;;;;14.53;4.30;;;;;;;-41.92;64.19;92457.84;5116485;23;22000;-69
2023/03/12 16:44:31;;;;;;;12.13;3.73;;;;;;;-42.02;65.63;92457.31;5095899;23;22838;-69
2023/03/12 16:46:59;;;;;;;14.47;4.67;;;;;;;-42.08;66.03;92452.59;5098790;23;21363;-71
2023/03/12 16:49:25;;;;;;;14.73;3.90;;;;;;;-42.10;66.48;92464.03;5113076;23;21485;-71
2023/03/12 16:51:52;;;;;;;12.93;3.80;;;;;;;-42.17;66.17;92447.97;5090956;23;22904;-67
2023/03/12 16:54:19;;;;;;;31.57;5.97;;;;;;;-42.14;66.34;92467.34;5052144;23;20655;-69
2023/03/12 16:56:47;;;;;;;16.63;4.67;;;;;;;-42.26;66.96;92460.34;5078906;23;20210;-66
2023/03/12 16:59:36;;;;;;;14.07;4.17;;;;;;;-42.33;68.34;92462.13;5083073;23;25857;-69
2023/03/12 17:02:17;;;;;;;13.50;4.00;;;;;;;-42.40;69.28;92460.72;5053716;23;20279;-70
2023/03/12 17:04:44;;;;;;;13.87;4.07;;;;;;;-42.45;70.10;92452.72;5062152;23;20207;-67
2023/03/12 17:07:10;;;;;;;15.97;5.50;;;;;;;-42.46;70.83;92461.63;5113385;23;20200;-69
2023/03/12 17:09:37;;;;;;;26.57;6.90;;;;;;;-42.45;71.04;92460.81;5089677;23;20273;-67
2023/03/12 17:12:17;;;;;;;16.30;6.37;;;;;;;-42.44;72.33;92459.97;5111046;23;20207;-70
2023/03/12 17:14:44;;;;;;;16.93;5.53;;;;;;;-42.38;72.47;92459.84;5082312;23;20271;-68
2023/03/12 17:17:10;;;;;;;32.63;5.73;;;;;;;-42.40;73.49;92456.63;5081092;23;20214;-71
2023/03/12 17:19:37;;;;;;;26.63;5.47;;;;;;;-42.43;74.03;92465.66;5085394;23;20203;-67
2023/03/12 17:22:03;;;;;;;20.17;5.23;;;;;;;-42.56;74.41;92459.47;5088884;23;20219;-67
2023/03/12 17:24:30;;;;;;;17.13;6.77;;;;;;;-42.55;75.05;92466.69;5082293;23;22885;-68
2023/03/12 17:26:57;;;;;;;34.33;7.20;;;;;;;-42.52;74.37;92473.97;5084614;23;20425;-68
2023/03/12 17:29:23;;;;;;;39.93;7.33;;;;;;;-42.40;74.17;92471.22;5077003;23;22278;-67
2023/03/12 17:31:50;;;;;;;20.20;7.07;;;;;;;-42.42;73.88;92472.91;5098358;23;20207;-67
2023/03/12 17:34:17;;;;;;;22.60;7.87;;;;;;;-42.49;74.08;92473.88;5088651;23;20207;-71
2023/03/12 17:36:43;;;;;;;30.97;8.63;;;;;;;-42.37;73.72;92483.31;5057275;23;25439;-74
2023/03/12 17:39:10;;;;;;;28.33;9.30;;;;;;;-42.30;72.80;92485.59;5097535;23;20207;-68
2023/03/12 17:41:37;;;;;;;20.70;8.17;;;;;;;-42.39;73.42;92477.69;5083664;23;20640;-66
2023/03/12 17:44:05;;;;;;;28.27;8.37;;;;;;;-42.40;73.36;92480.19;5085950;23;20207;-64
2023/03/12 17:46:32;;;;;;;22.73;6.80;;;;;;;-42.25;72.55;92486.28;5096928;23;20214;-66
2023/03/12 17:48:59;;;;;;;15.60;5.67;;;;;;;-42.17;71.82;92482.06;5091534;23;21330;-64
2023/03/12 17:51:25;;;;;;;21.53;6.40;;;;;;;-42.10;71.44;92488.38;5073976;23;20210;-66
2023/03/12 17:53:52;;;;;;;22.00;6.17;;;;;;;-42.02;71.52;92490.63;5087626;23;20200;-70
2023/03/12 17:56:18;;;;;;;14.57;5.83;;;;;;;-42.04;72.26;92485.78;5107996;23;20630;-67
2023/03/12 17:58:45;;;;;;;17.87;5.77;;;;;;;-42.13;72.94;92483.56;5097043;23;20295;-68
2023/03/12 18:01:12;;;;;;;22.47;5.47;;;;;;;-42.22;74.04;92478.91;5074782;23;20204;-68
2023/03/12 18:03:39;;;;;;;20.90;6.53;;;;;;;-42.21;74.43;92485.38;5103917;23;20642;-67
2023/03/12 18:06:06;;;;;;;22.37;5.93;;;;;;;-42.31;75.78;92484.00;5067248;23;20607;-65
2023/03/12 18:08:32;;;;;;;21.30;7.23;;;;;;;-42.27;75.80;92480.66;5080663;23;20266;-65
2023/03/12 18:11:00;;;;;;;21.37;7.00;;;;;;;-42.25;75.63;92484.63;5090181;23;20203;-67
2023/03/12 18:13:30;;;;;;;18.33;6.57;;;;;;;-42.29;76.34;92496.91;5074565;23;20218;-69
2023/03/12 18:15:57;;;;;;;21.70;6.20;;;;;;;-42.50;77.34;92488.50;5082582;23;20207;-68
2023/03/12 18:18:24;;;;;;;17.30;6.13;;;;;;;-42.38;77.15;92495.56;5086373;23;22116;-68
2023/03/12 18:20:52;;;;;;;16.27;6.27;;;;;;;-42.44;77.44;92502.97;5071976;23;20203;-69
2023/03/12 18:23:18;;;;;;;20.20;6.63;;;;;;;-42.27;76.87;92502.56;5082084;23;22027;-66
2023/03/12 18:25:45;;;;;;;17.23;6.30;;;;;;;-42.13;75.67;92509.53;5098600;23;20242;-68
2023/03/12 18:28:12;;;;;;;18.83;6.33;;;;;;;-42.17;75.13;92512.06;5103242;23;20605;-67
2023/03/12 18:30:40;;;;;;;19.10;5.73;;;;;;;-42.14;74.74;92516.06;5138678;23;21019;-67
2023/03/12 18:33:06;;;;;;;18.40;6.23;;;;;;;-42.26;74.77;92517.13;5097800;23;20214;-66
2023/03/12 18:35:33;;;;;;;16.53;6.40;;;;;;;-42.11;74.60;92520.84;5107047;23;20203;-65
2023/03/12 18:38:00;;;;;;;20.57;6.80;;;;;;;-42.24;74.42;92524.44;5071906;23;25874;-65
2023/03/12 18:40:28;;;;;;;20.03;6.87;;;;;;;-42.23;74.12;92526.81;5094816;23;20447;-67
2023/03/12 18:42:58;;;;;;;62.67;10.23;;;;;;;-42.45;75.52;92521.66;5083583;23;20931;-66
2023/03/12 18:45:26;;;;;;;33.20;8.63;;;;;;;-42.41;75.71;92518.31;5071927;23;20280;-65
2023/03/12 18:47:52;;;;;;;23.03;6.63;;;;;;;-42.45;75.33;92511.91;5053580;23;20273;-65
2023/03/12 18:50:20;;;;;;;24.70;6.93;;;;;;;-42.32;74.48;92511.59;5103073;23;20720;-67
2023/03/12 18:52:46;;;;;;;21.43;6.83;;;;;;;-42.34;73.55;92510.84;5050884;23;20459;-66
2023/03/12 18:55:17;;;;;;;21.00;6.80;;;;;;;-42.32;73.43;92519.72;5068316;23;23524;-68
2023/03/12 18:57:45;;;;;;;26.80;7.30;;;;;;;-42.19;72.49;92512.94;5084488;23;20270;-66
2023/03/12 19:00:16;;;;;;;22.53;7.87;;;;;;;-42.16;72.15;92511.22;5078268;23;20965;-66
2023/03/12 19:02:44;;;;;;;23.67;9.30;;;;;;;-42.18;71.65;92512.88;5088644;23;20398;-68
2023/03/12 19:05:13;;;;;;;31.33;10.20;;;;;;;-42.09;71.43;92509.44;5091912;23;20219;-67
2023/03/12 19:07:41;;;;;;;32.23;10.03;;;;;;;-42.15;71.07;92504.72;5130361;23;20581;-65
2023/03/12 19:10:08;;;;;;;36.57;10.50;;;;;;;-42.22;71.50;92508.13;5074843;23;20207;-66
2023/03/12 19:12:34;;;;;;;33.63;10.67;;;;;;;-42.19;71.24;92508.06;5102826;23;20210;-66
2023/03/12 19:15:15;;;;;;;33.63;11.43;;;;;;;-42.32;71.32;92501.88;5089539;23;20305;-61
2023/03/12 19:17:41;;;;;;;28.30;10.67;;;;;;;-42.25;71.33;92503.31;5055128;23;20207;-67
2023/03/12 19:20:09;;;;;;;37.60;10.37;;;;;;;-42.24;71.39;92500.06;5080334;23;21717;-67
2023/03/12 19:22:35;;;;;;;26.47;10.57;;;;;;;-42.22;71.21;92489.47;5097110;22;20261;-65
2023/03/12 19:25:02;;;;;;;30.23;9.90;;;;;;;-42.14;70.86;92491.72;5082874;23;21641;-69
2023/03/12 19:27:29;;;;;;;33.30;11.37;;;;;;;-42.21;70.24;92503.22;5078188;23;20210;-64
2023/03/12 19:29:55;;;;;;;33.83;10.27;;;;;;;-42.38;71.98;92498.78;5083919;23;20594;-65